createdAt,value
2019-02-15T00:00:22.293Z,3.10
2019-02-15T00:02:50.741Z,3.10
2019-02-15T00:05:19.246Z,3.10
2019-02-15T00:07:47.719Z,3.00
2019-02-15T00:10:35.501Z,3.00
2019-02-15T00:13:03.965Z,3.00
2019-02-15T00:15:32.410Z,2.90
2019-02-15T00:18:02.840Z,2.90
2019-02-15T00:23:23.367Z,2.80
2019-02-15T00:25:51.810Z,2.80
2019-02-15T00:28:20.285Z,2.80
2019-02-15T00:30:48.741Z,2.80
2019-02-15T00:33:17.184Z,2.80
2019-02-15T00:35:45.619Z,2.70
2019-02-15T00:38:14.059Z,2.80
2019-02-15T00:40:42.485Z,2.70
2019-02-15T00:43:10.928Z,2.70
2019-02-15T00:45:41.037Z,2.70
2019-02-15T00:48:11.372Z,2.70
2019-02-15T00:50:44.401Z,2.70
2019-02-15T00:53:30.721Z,2.70
2019-02-15T00:56:13.062Z,2.70
2019-02-15T00:58:55.064Z,2.70
2019-02-15T01:01:34.329Z,2.70
2019-02-15T01:04:04.414Z,2.70
2019-02-15T01:06:37.183Z,2.60
2019-02-15T01:09:23.386Z,2.70
2019-02-15T01:11:59.384Z,2.60
2019-02-15T01:14:27.829Z,2.70
2019-02-15T01:16:56.264Z,2.60
2019-02-15T01:19:24.709Z,2.60
2019-02-15T01:21:53.142Z,2.60
2019-02-15T01:24:21.622Z,2.70
2019-02-15T01:26:51.706Z,2.60
2019-02-15T01:29:38.152Z,2.60
2019-02-15T01:32:08.212Z,2.60
2019-02-15T01:34:55.849Z,2.60
2019-02-15T01:37:28.681Z,2.60
2019-02-15T01:40:07.545Z,2.60
2019-02-15T01:42:40.779Z,2.60
2019-02-15T01:45:17.029Z,2.50
2019-02-15T01:47:45.478Z,2.50
2019-02-15T01:50:13.910Z,2.50
2019-02-15T01:52:42.431Z,2.40
2019-02-15T01:55:10.862Z,2.40
2019-02-15T01:57:39.306Z,2.40
2019-02-15T02:00:12.360Z,2.40
2019-02-15T02:02:40.806Z,2.40
2019-02-15T02:05:09.301Z,2.40
2019-02-15T02:07:37.749Z,2.30
2019-02-15T02:10:08.885Z,2.30
2019-02-15T02:12:37.322Z,2.30
2019-02-15T02:15:08.076Z,2.30
2019-02-15T02:17:36.582Z,2.30
2019-02-15T02:20:07.764Z,2.20
2019-02-15T02:22:36.199Z,2.20
2019-02-15T02:25:06.293Z,2.20
2019-02-15T02:27:34.718Z,2.20
2019-02-15T02:30:03.295Z,2.10
2019-02-15T02:32:31.721Z,2.20
2019-02-15T02:35:00.414Z,2.20
2019-02-15T02:37:28.839Z,2.20
2019-02-15T02:39:57.975Z,2.10
2019-02-15T02:42:26.414Z,2.20
2019-02-15T02:44:54.857Z,2.10
2019-02-15T02:47:23.288Z,2.20
2019-02-15T02:49:51.778Z,2.20
2019-02-15T02:52:20.280Z,2.10
2019-02-15T02:54:48.714Z,2.10
2019-02-15T02:57:17.163Z,2.10
2019-02-15T02:59:45.665Z,2.00
2019-02-15T03:02:14.100Z,2.00
2019-02-15T03:04:42.535Z,2.00
2019-02-15T03:07:30.303Z,2.10
2019-02-15T03:09:58.741Z,2.10
2019-02-15T03:12:27.175Z,2.00
2019-02-15T03:14:55.622Z,2.00
2019-02-15T03:17:24.135Z,1.90
2019-02-15T03:19:52.583Z,1.90
2019-02-15T03:22:21.016Z,1.90
2019-02-15T03:24:49.449Z,1.80
2019-02-15T03:27:17.886Z,1.80
2019-02-15T03:29:46.321Z,1.80
2019-02-15T03:32:14.760Z,1.80
2019-02-15T03:34:43.202Z,1.80
2019-02-15T03:37:25.370Z,1.80
2019-02-15T03:39:55.447Z,1.80
2019-02-15T03:42:23.959Z,1.70
2019-02-15T03:44:52.404Z,1.70
2019-02-15T03:47:22.542Z,1.70
2019-02-15T03:49:50.994Z,1.60
2019-02-15T03:52:19.430Z,1.60
2019-02-15T03:54:47.875Z,1.60
2019-02-15T03:57:16.309Z,1.60
2019-02-15T03:59:44.836Z,1.60
2019-02-15T04:02:32.607Z,1.60
2019-02-15T04:05:01.050Z,1.50
2019-02-15T04:07:29.478Z,1.50
2019-02-15T04:09:58.173Z,1.50
2019-02-15T04:12:26.593Z,1.50
2019-02-15T04:14:55.034Z,1.50
2019-02-15T04:17:23.536Z,1.40
2019-02-15T04:19:51.979Z,1.50
2019-02-15T04:22:20.409Z,1.50
2019-02-15T04:25:08.190Z,1.40
2019-02-15T04:27:36.687Z,1.40
2019-02-15T04:30:08.112Z,1.50
2019-02-15T04:32:36.542Z,1.50
2019-02-15T04:35:05.426Z,1.50
2019-02-15T04:37:33.849Z,1.50
2019-02-15T04:40:02.298Z,1.40
2019-02-15T04:42:30.731Z,1.40
2019-02-15T04:44:59.174Z,1.50
2019-02-15T04:47:27.616Z,1.50
2019-02-15T04:49:56.079Z,1.50
2019-02-15T04:52:24.502Z,1.50
2019-02-15T04:54:52.947Z,1.40
2019-02-15T04:57:21.379Z,1.40
2019-02-15T04:59:49.825Z,1.40
2019-02-15T05:02:18.253Z,1.40
2019-02-15T05:04:47.018Z,1.30
2019-02-15T05:07:15.441Z,1.30
2019-02-15T05:09:43.889Z,1.30
2019-02-15T05:12:12.315Z,1.30
2019-02-15T05:14:40.762Z,1.20
2019-02-15T05:17:09.202Z,1.20
2019-02-15T05:19:37.637Z,1.20
2019-02-15T05:22:06.084Z,1.20
2019-02-15T05:24:53.854Z,1.20
2019-02-15T05:27:22.288Z,1.30
2019-02-15T05:30:10.067Z,1.20
2019-02-15T05:32:38.513Z,1.20
2019-02-15T05:35:06.975Z,1.20
2019-02-15T05:37:35.495Z,1.20
2019-02-15T05:40:04.631Z,1.20
2019-02-15T05:42:33.062Z,1.30
2019-02-15T05:45:04.278Z,1.40
2019-02-15T05:47:31.682Z,1.40
2019-02-15T05:50:00.391Z,1.40
2019-02-15T05:52:28.945Z,1.40
2019-02-15T05:54:57.399Z,1.40
2019-02-15T05:57:25.847Z,1.50
2019-02-15T05:59:54.358Z,1.50
2019-02-15T06:02:22.785Z,1.50
2019-02-15T06:04:51.243Z,1.60
2019-02-15T06:07:19.673Z,1.50
2019-02-15T06:09:48.123Z,1.50
2019-02-15T06:12:16.562Z,1.50
2019-02-15T06:14:45.010Z,1.60
2019-02-15T06:17:13.449Z,1.60
2019-02-15T06:19:41.916Z,1.60
2019-02-15T06:22:10.708Z,1.60
2019-02-15T06:24:39.289Z,1.70
2019-02-15T06:27:07.721Z,1.70
2019-02-15T06:29:36.183Z,1.70
2019-02-15T06:32:04.626Z,1.70
2019-02-15T06:34:33.067Z,1.80
2019-02-15T06:37:01.501Z,1.80
2019-02-15T06:39:29.929Z,1.80
2019-02-15T06:41:58.388Z,1.90
2019-02-15T06:44:26.822Z,1.90
2019-02-15T06:46:55.279Z,2.00
2019-02-15T06:49:23.709Z,2.10
2019-02-15T06:51:52.166Z,2.10
2019-02-15T06:54:20.606Z,2.10
2019-02-15T06:56:49.051Z,2.10
2019-02-15T06:59:28.166Z,2.10
2019-02-15T07:02:00.965Z,2.10
2019-02-15T07:04:31.030Z,2.20
2019-02-15T07:06:59.469Z,2.20
2019-02-15T07:09:27.902Z,2.20
2019-02-15T07:12:15.696Z,2.40
2019-02-15T07:14:44.151Z,2.40
2019-02-15T07:17:12.678Z,2.30
2019-02-15T07:19:41.110Z,2.40
2019-02-15T07:22:09.557Z,2.40
2019-02-15T07:24:37.998Z,2.40
2019-02-15T07:27:06.444Z,2.40
2019-02-15T07:29:34.890Z,2.40
2019-02-15T07:32:03.341Z,2.50
2019-02-15T07:34:31.783Z,2.70
2019-02-15T07:37:00.217Z,2.80
2019-02-15T07:39:28.663Z,2.80
2019-02-15T07:41:57.104Z,2.90
2019-02-15T07:44:25.546Z,3.10
2019-02-15T07:47:13.331Z,3.20
2019-02-15T07:49:41.766Z,3.20
2019-02-15T07:52:10.214Z,3.30
2019-02-15T07:54:38.736Z,3.50
2019-02-15T07:57:07.222Z,3.60
2019-02-15T07:59:55.002Z,3.80
2019-02-15T08:02:23.446Z,4.00
2019-02-15T08:04:51.889Z,4.20
2019-02-15T08:07:20.330Z,4.40
2019-02-15T08:09:48.759Z,4.70
2019-02-15T08:12:17.200Z,5.30
2019-02-15T08:14:45.626Z,6.20
2019-02-15T08:17:14.073Z,7.30
2019-02-15T08:19:42.512Z,8.40
2019-02-15T08:22:10.952Z,9.30
2019-02-15T08:24:39.391Z,10.00
2019-02-15T08:27:07.838Z,10.30
2019-02-15T08:29:36.284Z,10.30
2019-02-15T08:32:04.732Z,10.10
2019-02-15T08:34:33.184Z,9.80
2019-02-15T08:37:01.745Z,9.40
2019-02-15T08:39:30.185Z,9.10
2019-02-15T08:42:04.450Z,8.70
2019-02-15T08:44:28.872Z,8.40
2019-02-15T08:46:57.317Z,8.30
2019-02-15T08:49:25.753Z,8.10
2019-02-15T08:51:54.463Z,7.90
2019-02-15T08:54:22.915Z,7.90
2019-02-15T08:56:51.357Z,7.90
2019-02-15T08:59:19.787Z,7.80
2019-02-15T09:01:49.878Z,7.80
2019-02-15T09:04:18.321Z,8.00
2019-02-15T09:06:46.775Z,8.00
2019-02-15T09:09:15.209Z,8.10
2019-02-15T09:11:43.717Z,8.20
2019-02-15T09:14:12.150Z,8.30
2019-02-15T09:16:40.590Z,8.50
2019-02-15T09:19:09.042Z,8.70
2019-02-15T09:21:37.566Z,8.70
2019-02-15T09:24:05.998Z,9.00
2019-02-15T09:26:34.451Z,9.20
2019-02-15T09:29:04.449Z,9.30
2019-02-15T09:31:32.898Z,9.50
2019-02-15T09:34:01.370Z,9.70
2019-02-15T09:36:29.818Z,9.90
2019-02-15T09:39:19.269Z,10.20
2019-02-15T09:41:47.722Z,10.30
2019-02-15T09:44:16.167Z,10.60
2019-02-15T09:46:44.609Z,10.90
2019-02-15T09:49:13.049Z,11.20
2019-02-15T09:51:41.537Z,11.30
2019-02-15T09:54:10.017Z,11.40
2019-02-15T09:56:38.461Z,11.70
2019-02-15T09:59:06.911Z,11.90
2019-02-15T10:01:35.354Z,12.30
2019-02-15T10:04:03.802Z,12.60
2019-02-15T10:06:32.277Z,12.70
2019-02-15T10:09:00.784Z,12.80
2019-02-15T10:11:29.240Z,13.20
2019-02-15T10:13:57.748Z,13.70
2019-02-15T10:16:29.787Z,14.00
2019-02-15T10:18:56.378Z,14.40
2019-02-15T10:21:24.821Z,14.60
2019-02-15T10:23:53.298Z,14.60
2019-02-15T10:26:21.730Z,14.90
2019-02-15T10:28:50.191Z,15.10
2019-02-15T10:31:18.627Z,15.50
2019-02-15T10:33:47.078Z,15.80
2019-02-15T10:36:15.520Z,16.10
2019-02-15T10:38:43.982Z,16.20
2019-02-15T10:41:12.435Z,16.30
2019-02-15T10:43:40.887Z,16.50
2019-02-15T10:46:09.338Z,16.60
2019-02-15T10:48:37.778Z,16.90
2019-02-15T10:51:06.314Z,17.10
2019-02-15T10:53:34.826Z,17.10
2019-02-15T10:56:03.259Z,17.30
2019-02-15T10:58:31.702Z,17.30
2019-02-15T11:01:00.152Z,17.40
2019-02-15T11:03:28.589Z,17.40
2019-02-15T11:05:57.046Z,17.80
2019-02-15T11:08:25.516Z,18.20
2019-02-15T11:10:53.960Z,18.50
2019-02-15T11:13:22.408Z,18.40
2019-02-15T11:15:50.850Z,18.80
2019-02-15T11:18:19.293Z,18.50
2019-02-15T11:20:47.770Z,18.90
2019-02-15T11:23:16.251Z,19.20
2019-02-15T11:25:44.690Z,19.20
2019-02-15T11:28:13.141Z,18.80
2019-02-15T11:30:41.589Z,18.90
2019-02-15T11:33:10.035Z,19.10
2019-02-15T11:35:38.472Z,19.60
2019-02-15T11:38:06.929Z,19.90
2019-02-15T11:40:35.364Z,19.90
2019-02-15T11:43:03.830Z,20.10
2019-02-15T11:45:32.269Z,20.30
2019-02-15T11:48:00.724Z,20.30
2019-02-15T11:50:29.171Z,20.70
2019-02-15T11:52:57.622Z,20.80
2019-02-15T11:55:26.058Z,21.00
2019-02-15T11:57:54.512Z,20.70
2019-02-15T12:00:33.912Z,20.90
2019-02-15T12:03:02.434Z,20.30
2019-02-15T12:05:30.859Z,20.60
2019-02-15T12:08:00.112Z,20.80
2019-02-15T12:10:28.554Z,21.00
2019-02-15T12:12:57.020Z,21.00
2019-02-15T12:15:25.470Z,21.50
2019-02-15T12:17:53.918Z,21.50
2019-02-15T12:20:22.362Z,22.00
2019-02-15T12:22:50.818Z,22.10
2019-02-15T12:25:19.322Z,21.70
2019-02-15T12:27:47.787Z,22.10
2019-02-15T12:30:16.394Z,22.10
2019-02-15T12:32:44.833Z,22.20
2019-02-15T12:35:13.347Z,22.70
2019-02-15T12:37:41.798Z,23.10
2019-02-15T12:40:11.690Z,22.80
2019-02-15T12:42:40.398Z,22.40
2019-02-15T12:45:15.433Z,22.90
2019-02-15T12:47:43.890Z,23.00
2019-02-15T12:50:19.540Z,23.20
2019-02-15T12:52:47.998Z,23.70
2019-02-15T12:55:16.699Z,23.80
2019-02-15T12:57:45.133Z,23.90
2019-02-15T13:00:17.318Z,24.10
2019-02-15T13:02:45.779Z,24.50
2019-02-15T13:05:14.799Z,25.20
2019-02-15T13:07:43.260Z,25.80
2019-02-15T13:10:22.496Z,27.50
2019-02-15T13:12:51.027Z,28.80
2019-02-15T13:15:19.524Z,29.00
2019-02-15T13:17:48.096Z,29.50
2019-02-15T13:20:16.586Z,30.10
2019-02-15T13:22:45.057Z,29.60
2019-02-15T13:25:13.594Z,29.70
2019-02-15T13:27:42.054Z,29.70
2019-02-15T13:30:12.491Z,29.70
2019-02-15T13:32:41.266Z,28.60
2019-02-15T13:35:15.978Z,29.00
2019-02-15T13:37:45.030Z,28.70
2019-02-15T13:40:13.492Z,28.60
2019-02-15T13:42:41.927Z,29.30
2019-02-15T13:45:12.310Z,29.40
2019-02-15T13:47:40.758Z,29.80
2019-02-15T13:50:13.543Z,28.80
2019-02-15T13:52:41.988Z,27.60
2019-02-15T13:55:10.900Z,27.60
2019-02-15T13:57:39.329Z,26.80
2019-02-15T14:00:12.801Z,26.40
2019-02-15T14:02:41.327Z,26.20
2019-02-15T14:05:11.682Z,26.20
2019-02-15T14:07:40.191Z,26.70
2019-02-15T14:10:13.455Z,27.20
2019-02-15T14:12:41.959Z,27.50
2019-02-15T14:15:11.454Z,27.60
2019-02-15T14:17:45.347Z,27.80
2019-02-15T14:20:12.098Z,28.50
2019-02-15T14:22:40.605Z,27.70
2019-02-15T14:25:11.095Z,28.10
2019-02-15T14:27:39.544Z,28.30
2019-02-15T14:30:11.061Z,28.40
2019-02-15T14:32:39.975Z,28.80
2019-02-15T14:35:10.532Z,29.40
2019-02-15T14:37:38.991Z,29.90
2019-02-15T14:40:09.784Z,29.20
2019-02-15T14:42:38.228Z,28.90
2019-02-15T14:45:09.210Z,28.60
2019-02-15T14:47:37.651Z,27.90
2019-02-15T14:50:08.210Z,27.80
2019-02-15T14:52:36.675Z,28.00
2019-02-15T14:55:07.630Z,27.90
2019-02-15T14:57:36.061Z,28.50
2019-02-15T15:00:12.232Z,27.50
2019-02-15T15:02:40.831Z,27.90
2019-02-15T15:05:10.376Z,27.90
2019-02-15T15:07:38.814Z,28.90
2019-02-15T15:10:08.914Z,28.50
2019-02-15T15:12:37.382Z,28.50
2019-02-15T15:15:13.295Z,28.70
2019-02-15T15:17:41.767Z,29.40
2019-02-15T15:20:13.663Z,29.90
2019-02-15T15:22:42.105Z,29.80
2019-02-15T15:25:12.600Z,28.60
2019-02-15T15:27:41.051Z,28.40
2019-02-15T15:30:12.306Z,28.50
2019-02-15T15:32:40.741Z,28.40
2019-02-15T15:35:11.153Z,28.40
2019-02-15T15:37:39.591Z,28.10
2019-02-15T15:40:11.171Z,27.70
2019-02-15T15:42:39.638Z,26.60
2019-02-15T15:45:10.423Z,26.20
2019-02-15T15:47:38.862Z,25.70
2019-02-15T15:50:09.755Z,25.10
2019-02-15T15:52:38.250Z,24.60
2019-02-15T15:55:11.520Z,24.20
2019-02-15T15:57:39.959Z,23.90
2019-02-15T16:00:11.449Z,23.50
2019-02-15T16:02:40.069Z,23.00
2019-02-15T16:05:09.494Z,22.70
2019-02-15T16:07:37.955Z,22.50
2019-02-15T16:10:14.061Z,22.10
2019-02-15T16:12:42.508Z,21.80
2019-02-15T16:15:13.482Z,21.40
2019-02-15T16:17:42.683Z,20.90
2019-02-15T16:20:14.551Z,20.30
2019-02-15T16:22:42.996Z,19.90
2019-02-15T16:25:11.454Z,19.60
2019-02-15T16:27:39.895Z,19.20
2019-02-15T16:30:29.204Z,18.80
2019-02-15T16:32:57.652Z,18.40
2019-02-15T16:35:26.143Z,18.00
2019-02-15T16:37:54.610Z,17.60
2019-02-15T16:40:23.163Z,17.20
2019-02-15T16:42:51.692Z,16.90
2019-02-15T16:45:20.224Z,16.50
2019-02-15T16:47:48.658Z,16.30
2019-02-15T16:50:17.122Z,15.90
2019-02-15T16:52:45.558Z,15.60
2019-02-15T16:55:14.025Z,15.30
2019-02-15T16:57:42.549Z,14.90
2019-02-15T17:00:13.540Z,14.60
2019-02-15T17:02:42.017Z,14.50
2019-02-15T17:05:10.594Z,14.30
2019-02-15T17:07:39.041Z,14.00
2019-02-15T17:10:11.006Z,13.90
2019-02-15T17:12:39.541Z,13.50
2019-02-15T17:15:11.048Z,13.40
2019-02-15T17:17:39.495Z,13.20
2019-02-15T17:20:09.385Z,13.00
2019-02-15T17:22:37.830Z,12.90
2019-02-15T17:25:09.027Z,12.70
2019-02-15T17:27:37.482Z,12.50
2019-02-15T17:30:08.951Z,12.40
2019-02-15T17:32:56.722Z,12.30
2019-02-15T17:35:25.171Z,12.20
2019-02-15T17:37:53.614Z,12.10
2019-02-15T17:40:23.585Z,12.00
2019-02-15T17:42:52.029Z,11.80
2019-02-15T17:45:20.739Z,11.60
2019-02-15T17:47:49.178Z,11.40
2019-02-15T17:50:17.624Z,11.20
2019-02-15T17:52:46.058Z,11.10
2019-02-15T17:55:14.523Z,10.90
2019-02-15T17:57:42.962Z,10.90
2019-02-15T18:00:34.966Z,10.70
2019-02-15T18:03:03.478Z,10.50
2019-02-15T18:05:31.945Z,10.40
2019-02-15T18:08:00.377Z,10.30
2019-02-15T18:10:28.836Z,10.20
2019-02-15T18:12:57.542Z,10.10
2019-02-15T18:15:25.997Z,10.10
2019-02-15T18:17:54.446Z,10.00
2019-02-15T18:20:22.898Z,10.00
2019-02-15T18:22:51.362Z,9.90
2019-02-15T18:25:19.812Z,9.90
2019-02-15T18:27:48.244Z,9.80
2019-02-15T18:30:36.026Z,9.70
2019-02-15T18:33:04.450Z,9.70
2019-02-15T18:35:32.926Z,9.60
2019-02-15T18:38:01.378Z,9.50
2019-02-15T18:40:29.834Z,9.40
2019-02-15T18:42:58.263Z,9.40
2019-02-15T18:45:26.715Z,9.30
2019-02-15T18:47:55.155Z,9.30
2019-02-15T18:50:23.591Z,9.30
2019-02-15T18:52:52.057Z,9.20
2019-02-15T18:55:20.498Z,9.20
2019-02-15T18:57:48.983Z,9.10
2019-02-15T19:00:17.842Z,9.00
2019-02-15T19:02:48.343Z,9.00
2019-02-15T19:05:16.801Z,8.90
2019-02-15T19:07:45.317Z,8.80
2019-02-15T19:10:16.745Z,8.70
2019-02-15T19:12:45.226Z,8.60
2019-02-15T19:15:15.714Z,8.50
2019-02-15T19:17:45.809Z,8.50
2019-02-15T19:20:15.494Z,8.40
2019-02-15T19:22:43.958Z,8.30
2019-02-15T19:25:14.431Z,8.30
2019-02-15T19:27:42.958Z,8.30
2019-02-15T19:30:14.049Z,8.20
2019-02-15T19:33:01.830Z,8.10
2019-02-15T19:35:30.281Z,8.10
2019-02-15T19:37:58.754Z,8.10
2019-02-15T19:40:27.244Z,8.10
2019-02-15T19:43:07.487Z,7.90
2019-02-15T19:45:35.931Z,7.90
2019-02-15T19:48:04.425Z,7.80
2019-02-15T19:50:32.879Z,7.80
2019-02-15T19:53:01.328Z,7.80
2019-02-15T19:55:29.785Z,7.70
2019-02-15T19:57:58.661Z,7.60
2019-02-15T20:00:27.132Z,7.60
2019-02-15T20:02:55.582Z,7.60
2019-02-15T20:05:24.111Z,7.50
2019-02-15T20:07:52.557Z,7.50
2019-02-15T20:10:22.335Z,7.40
2019-02-15T20:12:50.887Z,7.40
2019-02-15T20:15:19.327Z,7.30
2019-02-15T20:17:47.787Z,7.20
2019-02-15T20:20:17.839Z,7.20
2019-02-15T20:22:46.359Z,7.10
2019-02-15T20:25:14.795Z,7.10
2019-02-15T20:27:43.251Z,7.00
2019-02-15T20:30:19.894Z,6.90
2019-02-15T20:32:48.364Z,6.90
2019-02-15T20:35:16.819Z,6.80
2019-02-15T20:37:45.321Z,6.80
2019-02-15T20:40:14.431Z,6.80
2019-02-15T20:42:42.902Z,6.70
2019-02-15T20:45:16.594Z,6.70
2019-02-15T20:47:45.045Z,6.60
2019-02-15T20:50:14.134Z,6.60
2019-02-15T20:52:42.583Z,6.40
2019-02-15T20:55:13.261Z,6.40
2019-02-15T20:57:41.897Z,6.40
2019-02-15T21:00:22.157Z,6.30
2019-02-15T21:02:50.614Z,6.20
2019-02-15T21:05:19.054Z,6.20
2019-02-15T21:07:47.506Z,6.20
2019-02-15T21:10:15.943Z,6.10
2019-02-15T21:12:44.395Z,6.10
2019-02-15T21:15:14.058Z,6.10
2019-02-15T21:17:42.505Z,6.10
2019-02-15T21:20:13.250Z,6.00
2019-02-15T21:22:41.701Z,6.00
2019-02-15T21:25:15.585Z,6.00
2019-02-15T21:27:44.035Z,5.90
2019-02-15T21:30:19.364Z,5.90
2019-02-15T21:32:47.810Z,5.90
2019-02-15T21:35:16.246Z,5.80
2019-02-15T21:37:44.694Z,5.70
2019-02-15T21:40:17.725Z,5.70
2019-02-15T21:42:46.192Z,5.70
2019-02-15T21:45:14.626Z,5.70
2019-02-15T21:47:43.067Z,5.60
2019-02-15T21:50:17.009Z,5.60
2019-02-15T21:52:44.186Z,5.50
2019-02-15T21:55:14.233Z,5.50
2019-02-15T21:57:42.682Z,5.40
2019-02-15T22:00:14.202Z,5.30
2019-02-15T22:02:42.646Z,5.30
2019-02-15T22:05:11.084Z,5.20
2019-02-15T22:07:39.532Z,5.30
2019-02-15T22:10:09.819Z,5.20
2019-02-15T22:12:38.270Z,5.10
2019-02-15T22:15:09.782Z,5.10
2019-02-15T22:17:38.229Z,5.10
2019-02-15T22:20:14.666Z,5.00
2019-02-15T22:22:43.184Z,5.00
2019-02-15T22:25:11.664Z,5.00
2019-02-15T22:27:40.148Z,5.00
2019-02-15T22:30:14.620Z,5.00
2019-02-15T22:32:43.060Z,5.00
2019-02-15T22:35:11.522Z,5.00
2019-02-15T22:37:39.952Z,5.00
2019-02-15T22:40:31.117Z,4.90
2019-02-15T22:43:05.390Z,4.90
2019-02-15T22:45:33.919Z,4.80
2019-02-15T22:48:02.345Z,4.80
2019-02-15T22:50:36.143Z,4.70
2019-02-15T22:53:00.945Z,4.70
2019-02-15T22:55:29.385Z,4.70
2019-02-15T22:57:57.823Z,4.60
2019-02-15T23:00:49.939Z,4.60
2019-02-15T23:03:20.755Z,4.60
2019-02-15T23:05:49.189Z,4.50
2019-02-15T23:08:17.626Z,4.50
2019-02-15T23:10:46.066Z,4.50
2019-02-15T23:13:14.505Z,4.40
2019-02-15T23:15:42.975Z,4.40
2019-02-15T23:18:11.409Z,4.30
2019-02-15T23:20:45.141Z,4.30
2019-02-15T23:23:10.122Z,4.30
2019-02-15T23:25:38.801Z,4.20
2019-02-15T23:28:07.238Z,4.20
2019-02-15T23:30:35.677Z,4.20
2019-02-15T23:33:04.105Z,4.20
2019-02-15T23:35:32.557Z,4.20
2019-02-15T23:38:00.986Z,4.20
2019-02-15T23:40:29.431Z,4.10
2019-02-15T23:42:57.870Z,4.10
2019-02-15T23:45:26.307Z,4.10
2019-02-15T23:47:54.994Z,4.10
2019-02-15T23:50:23.442Z,4.00
2019-02-15T23:52:51.880Z,3.90
2019-02-15T23:55:20.331Z,3.90
2019-02-15T23:57:48.766Z,3.90
